createdAt,value
2019-06-27T00:00:38.523Z,17.69
2019-06-27T00:03:08.669Z,17.61
2019-06-27T00:05:38.797Z,17.61
2019-06-27T00:08:09.104Z,17.59
2019-06-27T00:10:39.272Z,17.54
2019-06-27T00:13:09.407Z,17.47
2019-06-27T00:15:39.539Z,17.43
2019-06-27T00:18:09.678Z,17.39
2019-06-27T00:20:39.799Z,17.37
2019-06-27T00:23:10.023Z,17.28
2019-06-27T00:25:40.141Z,17.25
2019-06-27T00:28:10.262Z,17.21
2019-06-27T00:30:40.410Z,17.17
2019-06-27T00:33:10.559Z,17.14
2019-06-27T00:35:40.700Z,17.14
2019-06-27T00:38:10.836Z,17.04
2019-06-27T00:40:41.941Z,17.08
2019-06-27T00:43:12.083Z,17.01
2019-06-27T00:45:42.451Z,17.01
2019-06-27T00:48:12.560Z,16.98
2019-06-27T00:50:43.098Z,16.97
2019-06-27T00:53:13.297Z,16.95
2019-06-27T00:55:43.484Z,16.89
2019-06-27T00:58:13.669Z,16.81
2019-06-27T01:00:44.266Z,16.80
2019-06-27T01:03:14.508Z,16.76
2019-06-27T01:05:44.640Z,16.75
2019-06-27T01:08:14.779Z,16.64
2019-06-27T01:10:44.903Z,16.62
2019-06-27T01:13:15.040Z,16.62
2019-06-27T01:15:45.166Z,16.58
2019-06-27T01:18:15.321Z,16.57
2019-06-27T01:20:45.472Z,16.57
2019-06-27T01:23:15.691Z,16.53
2019-06-27T01:25:45.842Z,16.46
2019-06-27T01:28:15.978Z,16.45
2019-06-27T01:30:46.377Z,16.46
2019-06-27T01:33:16.520Z,16.44
2019-06-27T01:35:46.648Z,16.45
2019-06-27T01:38:16.788Z,16.41
2019-06-27T01:40:46.902Z,16.37
2019-06-27T01:43:17.067Z,16.31
2019-06-27T01:45:51.904Z,16.34
2019-06-27T01:48:22.092Z,16.29
2019-06-27T01:50:52.218Z,16.27
2019-06-27T01:53:22.414Z,16.25
2019-06-27T01:55:52.523Z,16.23
2019-06-27T01:58:22.735Z,16.26
2019-06-27T02:00:52.859Z,16.25
2019-06-27T02:03:23.023Z,16.22
2019-06-27T02:05:53.151Z,16.18
2019-06-27T02:08:23.408Z,16.20
2019-06-27T02:10:53.621Z,16.20
2019-06-27T02:13:23.787Z,16.17
2019-06-27T02:15:54.024Z,16.16
2019-06-27T02:18:24.155Z,16.19
2019-06-27T02:20:54.291Z,16.20
2019-06-27T02:23:24.513Z,16.17
2019-06-27T02:25:54.641Z,16.17
2019-06-27T02:28:26.595Z,16.19
2019-06-27T02:30:56.730Z,16.26
2019-06-27T02:33:26.884Z,16.28
2019-06-27T02:35:57.017Z,16.38
2019-06-27T02:38:27.180Z,16.59
2019-06-27T02:40:58.857Z,16.88
2019-06-27T02:43:29.368Z,17.07
2019-06-27T02:45:59.491Z,17.33
2019-06-27T02:48:29.614Z,17.63
2019-06-27T02:50:59.737Z,18.02
2019-06-27T02:53:30.591Z,18.46
2019-06-27T02:56:00.723Z,18.89
2019-06-27T02:58:32.478Z,19.53
2019-06-27T03:01:03.731Z,20.02
2019-06-27T03:03:33.874Z,20.60
2019-06-27T03:06:04.006Z,21.04
2019-06-27T03:08:34.167Z,21.30
2019-06-27T03:11:04.311Z,21.12
2019-06-27T03:13:34.457Z,20.68
2019-06-27T03:16:04.582Z,20.31
2019-06-27T03:18:34.742Z,19.83
2019-06-27T03:21:04.956Z,19.72
2019-06-27T03:23:35.105Z,19.52
2019-06-27T03:26:05.257Z,19.34
2019-06-27T03:28:51.007Z,18.86
2019-06-27T03:31:07.205Z,18.48
2019-06-27T03:33:37.463Z,18.13
2019-06-27T03:36:07.724Z,18.16
2019-06-27T03:38:37.978Z,18.11
2019-06-27T03:41:08.088Z,18.28
2019-06-27T03:43:38.227Z,18.32
2019-06-27T03:46:08.381Z,17.97
2019-06-27T03:48:39.632Z,17.77
2019-06-27T03:51:09.772Z,17.45
2019-06-27T03:53:39.959Z,17.28
2019-06-27T03:56:10.121Z,16.81
2019-06-27T03:58:40.293Z,16.91
2019-06-27T04:01:10.441Z,16.81
2019-06-27T04:03:42.941Z,16.87
2019-06-27T04:06:12.436Z,16.45
2019-06-27T04:08:42.559Z,16.52
2019-06-27T04:11:12.741Z,16.60
2019-06-27T04:13:42.972Z,16.49
2019-06-27T04:16:13.102Z,16.34
2019-06-27T04:18:43.309Z,16.15
2019-06-27T04:21:13.510Z,16.19
2019-06-27T04:23:43.640Z,16.19
2019-06-27T04:26:13.771Z,16.31
2019-06-27T04:28:43.947Z,16.41
2019-06-27T04:31:14.045Z,16.29
2019-06-27T04:33:44.185Z,16.14
2019-06-27T04:36:14.385Z,15.99
2019-06-27T04:38:44.518Z,16.03
2019-06-27T04:41:14.762Z,16.14
2019-06-27T04:43:44.940Z,16.15
2019-06-27T04:46:15.234Z,16.20
2019-06-27T04:48:45.376Z,16.18
2019-06-27T04:51:15.525Z,16.15
2019-06-27T04:53:45.796Z,16.05
2019-06-27T04:56:15.889Z,16.15
2019-06-27T04:58:46.061Z,16.23
2019-06-27T05:01:16.246Z,16.46
2019-06-27T05:03:46.383Z,16.45
2019-06-27T05:06:16.510Z,16.71
2019-06-27T05:08:46.652Z,16.95
2019-06-27T05:11:16.774Z,17.24
2019-06-27T05:13:46.921Z,17.37
2019-06-27T05:16:17.064Z,17.44
2019-06-27T05:18:47.211Z,17.61
2019-06-27T05:21:17.421Z,17.57
2019-06-27T05:23:47.554Z,17.85
2019-06-27T05:26:18.494Z,17.89
2019-06-27T05:28:48.642Z,17.84
2019-06-27T05:31:18.758Z,17.76
2019-06-27T05:33:48.917Z,17.79
2019-06-27T05:36:19.028Z,17.83
2019-06-27T05:38:49.260Z,18.11
2019-06-27T05:41:19.470Z,17.96
2019-06-27T05:43:49.606Z,18.15
2019-06-27T05:46:19.741Z,18.40
2019-06-27T05:48:49.873Z,18.52
2019-06-27T05:51:20.101Z,18.72
2019-06-27T05:53:50.454Z,18.92
2019-06-27T05:56:20.725Z,19.16
2019-06-27T05:58:52.096Z,19.16
2019-06-27T06:01:22.495Z,19.10
2019-06-27T06:03:52.625Z,19.40
2019-06-27T06:06:22.745Z,19.38
2019-06-27T06:08:52.870Z,19.50
2019-06-27T06:11:24.211Z,19.69
2019-06-27T06:13:54.326Z,19.68
2019-06-27T06:16:24.438Z,20.08
2019-06-27T06:18:54.561Z,20.36
2019-06-27T06:21:24.679Z,20.60
2019-06-27T06:23:54.860Z,20.42
2019-06-27T06:26:24.991Z,20.21
2019-06-27T06:28:55.152Z,20.62
2019-06-27T06:31:25.444Z,20.77
2019-06-27T06:33:55.637Z,20.87
2019-06-27T06:36:25.837Z,20.91
2019-06-27T06:38:55.974Z,20.69
2019-06-27T06:41:26.104Z,20.39
2019-06-27T06:43:56.259Z,20.53
2019-06-27T06:46:26.383Z,20.52
2019-06-27T06:48:56.535Z,20.63
2019-06-27T06:51:26.662Z,20.43
2019-06-27T06:53:56.835Z,20.41
2019-06-27T06:56:26.956Z,20.29
2019-06-27T06:58:57.076Z,20.36
2019-06-27T07:01:27.204Z,20.59
2019-06-27T07:03:58.397Z,21.00
2019-06-27T07:06:28.540Z,21.40
2019-06-27T07:08:58.680Z,21.70
2019-06-27T07:11:28.965Z,21.75
2019-06-27T07:13:59.111Z,21.57
2019-06-27T07:16:29.220Z,21.35
2019-06-27T07:18:59.419Z,21.18
2019-06-27T07:21:29.543Z,21.02
2019-06-27T07:23:59.689Z,20.95
2019-06-27T07:26:29.826Z,21.12
2019-06-27T07:28:59.965Z,20.81
2019-06-27T07:31:31.296Z,21.02
2019-06-27T07:34:02.457Z,20.66
2019-06-27T07:36:32.584Z,20.51
2019-06-27T07:39:02.733Z,20.68
2019-06-27T07:41:32.916Z,21.20
2019-06-27T07:44:03.058Z,21.58
2019-06-27T07:46:33.210Z,21.95
2019-06-27T07:49:03.344Z,22.01
2019-06-27T07:51:33.949Z,21.99
2019-06-27T07:54:04.168Z,21.86
2019-06-27T07:56:34.289Z,21.93
2019-06-27T07:59:04.547Z,22.19
2019-06-27T08:01:36.042Z,22.58
2019-06-27T08:04:06.469Z,22.52
2019-06-27T08:06:36.703Z,22.32
2019-06-27T08:09:06.963Z,22.44
2019-06-27T08:11:37.631Z,22.82
2019-06-27T08:14:07.765Z,22.94
2019-06-27T08:16:37.885Z,22.99
2019-06-27T08:19:08.025Z,22.80
2019-06-27T08:21:38.152Z,22.85
2019-06-27T08:24:08.305Z,22.69
2019-06-27T08:26:38.432Z,22.93
2019-06-27T08:29:08.612Z,23.09
2019-06-27T08:31:50.916Z,22.85
2019-06-27T08:34:10.786Z,22.29
2019-06-27T08:36:40.986Z,22.10
2019-06-27T08:39:11.146Z,22.72
2019-06-27T08:41:41.264Z,23.14
2019-06-27T08:44:11.396Z,23.13
2019-06-27T08:46:41.526Z,23.51
2019-06-27T08:49:11.735Z,23.80
2019-06-27T08:51:41.897Z,23.21
2019-06-27T08:54:12.350Z,22.72
2019-06-27T08:56:42.530Z,23.28
2019-06-27T08:59:12.657Z,22.98
2019-06-27T09:01:42.865Z,22.93
2019-06-27T09:04:13.000Z,23.38
2019-06-27T09:06:44.229Z,23.52
2019-06-27T09:09:14.403Z,23.18
2019-06-27T09:11:44.540Z,23.40
2019-06-27T09:14:15.760Z,23.81
2019-06-27T09:16:46.883Z,24.04
2019-06-27T09:19:17.230Z,24.32
2019-06-27T09:21:47.351Z,23.82
2019-06-27T09:24:17.567Z,23.21
2019-06-27T09:26:47.690Z,23.30
2019-06-27T09:29:18.248Z,23.80
2019-06-27T09:31:48.405Z,22.86
2019-06-27T09:34:21.402Z,22.62
2019-06-27T09:36:50.364Z,22.50
2019-06-27T09:39:20.544Z,23.34
2019-06-27T09:41:50.702Z,23.77
2019-06-27T09:44:20.823Z,23.92
2019-06-27T09:46:50.952Z,23.91
2019-06-27T09:49:21.100Z,24.38
2019-06-27T09:51:51.251Z,24.30
2019-06-27T09:54:21.445Z,24.53
2019-06-27T09:56:51.576Z,25.00
2019-06-27T09:59:21.757Z,24.83
2019-06-27T10:01:51.923Z,24.98
2019-06-27T10:04:22.085Z,25.10
2019-06-27T10:06:52.240Z,25.14
2019-06-27T10:09:22.404Z,24.96
2019-06-27T10:11:53.523Z,25.24
2019-06-27T10:14:23.778Z,25.49
2019-06-27T10:16:54.103Z,25.42
2019-06-27T10:19:24.336Z,25.42
2019-06-27T10:21:54.459Z,25.53
2019-06-27T10:24:24.631Z,25.53
2019-06-27T10:26:54.805Z,24.92
2019-06-27T10:29:26.074Z,25.08
2019-06-27T10:31:56.202Z,25.35
2019-06-27T10:34:26.345Z,25.35
2019-06-27T10:36:56.462Z,25.43
2019-06-27T10:39:26.599Z,25.19
2019-06-27T10:41:56.739Z,25.27
2019-06-27T10:44:26.897Z,25.02
2019-06-27T10:46:57.039Z,25.11
2019-06-27T10:49:27.161Z,24.55
2019-06-27T10:51:58.168Z,24.69
2019-06-27T10:54:28.476Z,24.43
2019-06-27T10:56:58.604Z,24.58
2019-06-27T10:59:28.747Z,24.21
2019-06-27T11:01:58.897Z,23.93
2019-06-27T11:04:29.030Z,24.00
2019-06-27T11:06:59.169Z,24.43
2019-06-27T11:09:29.319Z,24.75
2019-06-27T11:11:59.440Z,24.98
2019-06-27T11:14:29.583Z,25.29
2019-06-27T11:16:59.706Z,25.67
2019-06-27T11:19:29.929Z,25.68
2019-06-27T11:22:00.065Z,24.76
2019-06-27T11:24:31.261Z,24.86
2019-06-27T11:27:01.410Z,24.56
2019-06-27T11:29:31.550Z,24.90
2019-06-27T11:32:01.693Z,25.49
2019-06-27T11:34:34.914Z,25.49
2019-06-27T11:37:03.619Z,25.53
2019-06-27T11:39:33.755Z,25.33
2019-06-27T11:42:03.884Z,25.31
2019-06-27T11:44:34.015Z,25.53
2019-06-27T11:47:04.144Z,25.37
2019-06-27T11:49:34.288Z,24.98
2019-06-27T11:52:04.468Z,24.05
2019-06-27T11:54:35.463Z,24.05
2019-06-27T11:57:05.601Z,23.68
2019-06-27T11:59:37.759Z,23.64
2019-06-27T12:02:09.583Z,23.65
2019-06-27T12:04:39.720Z,24.18
2019-06-27T12:07:09.858Z,24.48
2019-06-27T12:09:40.006Z,24.47
2019-06-27T12:12:10.145Z,24.17
2019-06-27T12:14:40.420Z,23.96
2019-06-27T12:17:10.551Z,23.88
2019-06-27T12:19:40.692Z,23.90
2019-06-27T12:22:10.851Z,24.07
2019-06-27T12:24:40.999Z,24.04
2019-06-27T12:27:11.136Z,23.86
2019-06-27T12:29:41.296Z,23.90
2019-06-27T12:32:11.415Z,24.08
2019-06-27T12:34:41.585Z,24.07
2019-06-27T12:37:11.698Z,24.43
2019-06-27T12:39:41.833Z,24.57
2019-06-27T12:42:11.999Z,24.95
2019-06-27T12:44:42.133Z,24.86
2019-06-27T12:47:12.277Z,24.86
2019-06-27T12:50:00.585Z,24.94
2019-06-27T12:52:14.264Z,24.67
2019-06-27T12:54:44.579Z,23.84
2019-06-27T12:57:14.831Z,24.11
2019-06-27T12:59:44.988Z,23.61
2019-06-27T13:02:15.113Z,23.32
2019-06-27T13:04:45.966Z,23.78
2019-06-27T13:07:16.104Z,23.77
2019-06-27T13:09:47.315Z,24.11
2019-06-27T13:12:17.567Z,24.41
2019-06-27T13:14:47.718Z,24.13
2019-06-27T13:17:17.879Z,24.38
2019-06-27T13:19:48.021Z,24.71
2019-06-27T13:22:18.168Z,24.83
2019-06-27T13:24:48.315Z,24.91
2019-06-27T13:27:18.501Z,24.88
2019-06-27T13:29:48.740Z,23.95
2019-06-27T13:32:18.866Z,24.72
2019-06-27T13:34:49.147Z,24.35
2019-06-27T13:37:19.394Z,24.41
2019-06-27T13:39:49.513Z,24.61
2019-06-27T13:42:19.631Z,24.21
2019-06-27T13:44:49.858Z,23.57
2019-06-27T13:47:20.405Z,23.78
2019-06-27T13:49:50.691Z,24.04
2019-06-27T13:52:20.823Z,24.13
2019-06-27T13:54:51.002Z,24.22
2019-06-27T13:57:21.121Z,24.32
2019-06-27T13:59:52.283Z,24.25
2019-06-27T14:02:22.411Z,24.31
2019-06-27T14:04:57.124Z,24.40
2019-06-27T14:07:24.458Z,24.04
2019-06-27T14:09:57.278Z,24.15
2019-06-27T14:12:26.499Z,24.23
2019-06-27T14:14:59.983Z,24.49
2019-06-27T14:17:28.514Z,24.15
2019-06-27T14:19:58.679Z,24.08
2019-06-27T14:22:34.058Z,23.83
2019-06-27T14:25:01.913Z,24.06
2019-06-27T14:27:32.157Z,24.22
2019-06-27T14:30:02.398Z,23.84
2019-06-27T14:32:33.560Z,23.85
2019-06-27T14:35:14.542Z,23.90
2019-06-27T14:37:35.753Z,23.95
2019-06-27T14:40:06.825Z,24.09
2019-06-27T14:42:36.969Z,24.25
2019-06-27T14:45:07.211Z,24.05
2019-06-27T14:47:37.337Z,24.11
2019-06-27T14:50:08.068Z,24.28
2019-06-27T14:52:38.214Z,24.07
2019-06-27T14:55:08.869Z,23.93
2019-06-27T14:57:39.029Z,24.03
2019-06-27T15:00:10.428Z,23.99
2019-06-27T15:02:41.023Z,24.03
2019-06-27T15:05:11.452Z,23.98
2019-06-27T15:07:41.592Z,23.66
2019-06-27T15:10:12.412Z,23.50
2019-06-27T15:12:56.446Z,23.58
2019-06-27T15:15:15.801Z,23.68
2019-06-27T15:17:46.041Z,23.66
2019-06-27T15:20:16.962Z,23.59
2019-06-27T15:22:47.122Z,23.29
2019-06-27T15:25:17.385Z,23.18
2019-06-27T15:27:47.521Z,23.08
2019-06-27T15:30:18.406Z,22.90
2019-06-27T15:32:48.657Z,23.16
2019-06-27T15:35:18.801Z,23.09
2019-06-27T15:37:48.961Z,22.87
2019-06-27T15:40:19.477Z,23.49
2019-06-27T15:42:49.604Z,23.64
2019-06-27T15:45:19.861Z,23.75
2019-06-27T15:47:49.975Z,23.75
2019-06-27T15:50:20.100Z,23.81
2019-06-27T15:52:50.243Z,23.80
2019-06-27T15:55:20.706Z,23.85
2019-06-27T15:57:50.837Z,23.87
2019-06-27T16:00:21.182Z,23.91
2019-06-27T16:02:52.248Z,24.00
2019-06-27T16:05:22.457Z,23.75
2019-06-27T16:07:52.603Z,23.67
2019-06-27T16:10:22.950Z,23.66
2019-06-27T16:12:53.101Z,23.45
2019-06-27T16:15:23.296Z,23.56
2019-06-27T16:17:53.427Z,23.65
2019-06-27T16:20:23.986Z,23.74
2019-06-27T16:22:54.156Z,23.57
2019-06-27T16:25:24.277Z,23.35
2019-06-27T16:27:54.486Z,23.30
2019-06-27T16:30:24.810Z,23.42
2019-06-27T16:32:54.947Z,23.46
2019-06-27T16:35:26.060Z,23.35
2019-06-27T16:37:56.195Z,23.38
2019-06-27T16:40:26.416Z,23.29
2019-06-27T16:42:56.559Z,23.30
2019-06-27T16:45:27.016Z,23.21
2019-06-27T16:47:57.149Z,23.21
2019-06-27T16:50:27.572Z,23.25
2019-06-27T16:52:57.781Z,23.29
2019-06-27T16:55:28.101Z,23.27
2019-06-27T16:57:58.227Z,23.30
2019-06-27T17:00:28.465Z,23.26
2019-06-27T17:02:58.642Z,23.20
2019-06-27T17:05:28.792Z,22.69
2019-06-27T17:07:58.927Z,23.00
2019-06-27T17:10:29.053Z,22.95
2019-06-27T17:12:59.202Z,22.94
2019-06-27T17:15:29.367Z,22.79
2019-06-27T17:17:59.489Z,22.97
2019-06-27T17:20:29.634Z,22.96
2019-06-27T17:22:59.790Z,23.07
2019-06-27T17:25:29.922Z,23.11
2019-06-27T17:28:00.036Z,23.16
2019-06-27T17:30:30.174Z,23.12
2019-06-27T17:33:00.304Z,23.07
2019-06-27T17:35:30.433Z,22.89
2019-06-27T17:38:00.557Z,22.88
2019-06-27T17:40:30.700Z,22.84
2019-06-27T17:43:00.834Z,22.89
2019-06-27T17:45:30.963Z,22.94
2019-06-27T17:48:01.162Z,22.81
2019-06-27T17:50:31.296Z,22.57
2019-06-27T17:53:01.437Z,22.69
2019-06-27T17:55:31.720Z,22.60
2019-06-27T17:58:01.857Z,22.40
2019-06-27T18:00:32.000Z,22.19
2019-06-27T18:03:02.129Z,22.22
2019-06-27T18:05:32.280Z,22.27
2019-06-27T18:08:02.402Z,22.12
2019-06-27T18:10:32.544Z,22.15
2019-06-27T18:13:02.700Z,22.18
2019-06-27T18:15:32.808Z,22.10
2019-06-27T18:18:02.943Z,22.02
2019-06-27T18:20:33.088Z,22.10
2019-06-27T18:23:03.218Z,22.11
2019-06-27T18:25:33.360Z,22.07
2019-06-27T18:28:03.489Z,21.93
2019-06-27T18:30:33.624Z,21.93
2019-06-27T18:33:03.747Z,21.90
2019-06-27T18:35:33.893Z,21.88
2019-06-27T18:38:04.026Z,21.76
2019-06-27T18:40:34.164Z,21.63
2019-06-27T18:43:04.292Z,21.65
2019-06-27T18:45:34.451Z,21.54
2019-06-27T18:48:04.619Z,21.52
2019-06-27T18:50:35.819Z,21.54
2019-06-27T18:53:05.944Z,21.49
2019-06-27T18:55:36.123Z,21.48
2019-06-27T18:58:06.243Z,21.43
2019-06-27T19:00:36.373Z,21.39
2019-06-27T19:03:06.702Z,21.40
2019-06-27T19:05:38.733Z,21.29
2019-06-27T19:08:10.491Z,21.33
2019-06-27T19:10:41.516Z,21.33
2019-06-27T19:13:12.715Z,21.31
2019-06-27T19:15:42.849Z,21.28
2019-06-27T19:18:30.983Z,21.28
2019-06-27T19:21:03.474Z,21.29
2019-06-27T19:23:41.029Z,21.24
2019-06-27T19:26:11.212Z,21.20
2019-06-27T19:28:41.383Z,21.16
2019-06-27T19:31:11.552Z,21.13
2019-06-27T19:33:41.718Z,21.10
2019-06-27T19:36:11.931Z,21.04
2019-06-27T19:38:42.084Z,20.97
2019-06-27T19:41:13.701Z,20.93
2019-06-27T19:43:43.888Z,20.89
2019-06-27T19:46:14.049Z,20.82
2019-06-27T19:48:45.698Z,20.73
2019-06-27T19:51:16.079Z,20.52
2019-06-27T19:53:46.276Z,20.43
2019-06-27T19:56:18.799Z,20.33
2019-06-27T19:58:49.189Z,20.28
2019-06-27T20:01:19.361Z,20.26
2019-06-27T20:03:49.523Z,20.19
2019-06-27T20:06:19.632Z,20.11
2019-06-27T20:08:49.756Z,20.00
2019-06-27T20:11:19.967Z,19.87
2019-06-27T20:13:50.108Z,19.72
2019-06-27T20:16:20.269Z,19.62
2019-06-27T20:18:50.411Z,19.53
2019-06-27T20:21:20.556Z,19.40
2019-06-27T20:23:50.733Z,19.31
2019-06-27T20:26:20.973Z,19.17
2019-06-27T20:28:51.096Z,19.02
2019-06-27T20:31:21.278Z,18.88
2019-06-27T20:33:51.435Z,18.74
2019-06-27T20:36:21.597Z,18.65
2019-06-27T20:38:51.747Z,18.56
2019-06-27T20:41:21.926Z,18.46
2019-06-27T20:43:52.066Z,18.34
2019-06-27T20:46:23.409Z,18.21
2019-06-27T20:48:54.072Z,18.09
2019-06-27T20:51:24.338Z,17.97
2019-06-27T20:53:54.466Z,17.84
2019-06-27T20:56:24.771Z,17.71
2019-06-27T20:58:55.850Z,17.59
2019-06-27T21:01:26.342Z,17.50
2019-06-27T21:03:56.533Z,17.40
2019-06-27T21:06:26.658Z,17.28
2019-06-27T21:08:56.775Z,17.17
2019-06-27T21:11:27.609Z,17.03
2019-06-27T21:13:57.730Z,16.91
2019-06-27T21:16:27.920Z,16.83
2019-06-27T21:18:58.047Z,16.75
2019-06-27T21:21:28.234Z,16.69
2019-06-27T21:23:58.375Z,16.65
2019-06-27T21:26:28.547Z,16.57
2019-06-27T21:28:58.723Z,16.45
2019-06-27T21:31:28.862Z,16.40
2019-06-27T21:33:59.370Z,16.31
2019-06-27T21:36:29.508Z,16.21
2019-06-27T21:39:07.504Z,16.11
2019-06-27T21:41:32.074Z,16.04
2019-06-27T21:44:02.236Z,15.95
2019-06-27T21:46:32.400Z,15.90
2019-06-27T21:49:02.604Z,15.80
2019-06-27T21:51:33.133Z,15.73
2019-06-27T21:54:03.451Z,15.67
2019-06-27T21:56:34.270Z,15.62
2019-06-27T21:59:04.516Z,15.57
2019-06-27T22:01:34.918Z,15.53
2019-06-27T22:04:05.113Z,15.46
2019-06-27T22:06:35.285Z,15.43
2019-06-27T22:09:23.434Z,15.36
2019-06-27T22:11:41.829Z,15.31
2019-06-27T22:14:11.945Z,15.22
2019-06-27T22:16:42.101Z,15.16
2019-06-27T22:19:12.256Z,15.13
2019-06-27T22:21:42.631Z,15.11
2019-06-27T22:24:14.123Z,15.04
2019-06-27T22:26:44.291Z,15.00
2019-06-27T22:29:14.425Z,14.93
2019-06-27T22:31:44.566Z,14.90
2019-06-27T22:34:14.896Z,14.84
2019-06-27T22:36:45.019Z,14.79
2019-06-27T22:39:40.370Z,14.73
2019-06-27T22:42:22.820Z,14.68
2019-06-27T22:45:12.578Z,14.59
2019-06-27T22:48:00.423Z,14.53
2019-06-27T22:50:49.775Z,14.48
2019-06-27T22:53:22.099Z,14.43
2019-06-27T22:55:52.320Z,14.37
2019-06-27T22:58:22.702Z,14.30
2019-06-27T23:00:52.960Z,14.25
2019-06-27T23:03:24.271Z,14.20
2019-06-27T23:05:54.625Z,14.15
2019-06-27T23:08:24.841Z,14.10
2019-06-27T23:10:55.145Z,14.05
2019-06-27T23:13:25.330Z,13.97
2019-06-27T23:15:55.452Z,13.95
2019-06-27T23:18:25.626Z,13.89
2019-06-27T23:20:55.759Z,13.84
2019-06-27T23:23:26.092Z,13.81
2019-06-27T23:25:56.285Z,13.77
2019-06-27T23:28:26.418Z,13.73
2019-06-27T23:30:56.608Z,13.69
2019-06-27T23:33:26.723Z,13.66
2019-06-27T23:35:57.135Z,13.55
2019-06-27T23:38:27.268Z,13.49
2019-06-27T23:40:57.454Z,13.51
2019-06-27T23:43:27.587Z,13.52
2019-06-27T23:45:57.790Z,13.55
2019-06-27T23:48:27.919Z,13.54
2019-06-27T23:50:58.047Z,13.55
2019-06-27T23:53:28.180Z,13.61
2019-06-27T23:55:58.300Z,13.66
2019-06-27T23:58:28.437Z,13.69
